Time;durP1;ratioP1;P1;durP2;ratioP2;P2;SDS_P1;SDS_P2;PMS_P1;PMS_P2;Temp;Humidity;BMP_temperature;BMP_pressure;BME280_temperature;BME280_humidity;BME280_pressure;Samples;Min_cycle;Max_cycle;Signal;HPM_P1;HPM_P2
2021/04/12 00:03:06;;;;;;;14.40;12.60;;;11.20;99.90;;;;;;5074954;28;19911;-77
2021/04/12 00:05:52;;;;;;;17.40;13.70;;;11.20;99.90;;;;;;5072073;28;20040;-78
2021/04/12 00:08:41;;;;;;;14.63;13.13;;;11.20;99.90;;;;;;5064603;28;20025;-77
2021/04/12 00:11:26;;;;;;;15.55;13.35;;;11.20;99.90;;;;;;5069506;28;20098;-77
2021/04/12 00:13:59;;;;;;;15.05;13.45;;;11.20;99.90;;;;;;5071510;28;20024;-77
2021/04/12 00:16:35;;;;;;;18.70;13.65;;;11.20;99.90;;;;;;5072660;28;20058;-78
2021/04/12 00:19:34;;;;;;;16.25;14.55;;;11.20;99.90;;;;;;5074300;28;20060;-77
2021/04/12 00:22:07;;;;;;;15.27;13.77;;;11.20;99.90;;;;;;5072558;28;20033;-77
2021/04/12 00:24:47;;;;;;;15.35;13.75;;;11.20;99.90;;;;;;5077704;28;20044;-77
2021/04/12 00:27:22;;;;;;;20.75;15.70;;;11.20;99.90;;;;;;5071292;28;20035;-77
2021/04/12 00:30:02;;;;;;;15.88;14.18;;;11.20;99.90;;;;;;5076030;28;20048;-77
2021/04/12 00:32:33;;;;;;;16.33;14.63;;;11.20;99.90;;;;;;5063730;28;20024;-78
2021/04/12 00:35:13;;;;;;;16.58;14.73;;;11.20;99.90;;;;;;5072887;28;20104;-78
2021/04/12 00:37:42;;;;;;;17.85;15.77;;;11.20;99.90;;;;;;5067150;28;20273;-77
2021/04/12 00:40:25;;;;;;;17.08;14.55;;;11.20;99.90;;;;;;5074520;28;20033;-77
2021/04/12 00:43:22;;;;;;;17.38;15.50;;;11.10;99.90;;;;;;5075752;28;20036;-77
2021/04/12 00:46:27;;;;;;;18.15;16.25;;;11.10;99.90;;;;;;5072027;28;20537;-77
2021/04/12 00:49:18;;;;;;;19.70;15.52;;;11.10;99.90;;;;;;5075487;28;20032;-77
2021/04/12 00:52:14;;;;;;;17.95;16.05;;;11.10;99.90;;;;;;5065684;28;20028;-77
2021/04/12 00:55:01;;;;;;;19.90;17.80;;;11.10;99.90;;;;;;5066582;28;20106;-77
2021/04/12 00:58:01;;;;;;;22.90;18.67;;;11.10;99.90;;;;;;5072837;28;20368;-77
2021/04/12 01:00:37;;;;;;;20.02;17.50;;;11.00;99.90;;;;;;5064383;28;20043;-77
2021/04/12 01:03:40;;;;;;;21.02;18.73;;;11.00;99.90;;;;;;5074811;28;20425;-77
2021/04/12 01:06:18;;;;;;;25.52;18.95;;;11.10;99.90;;;;;;5077389;28;20552;-77
2021/04/12 01:09:27;;;;;;;26.77;21.60;;;11.10;99.90;;;;;;5073174;28;20032;-77
2021/04/12 01:12:19;;;;;;;25.77;20.85;;;11.10;99.90;;;;;;5071094;28;20025;-77
2021/04/12 01:15:10;;;;;;;28.45;21.48;;;11.10;99.90;;;;;;5058633;28;20074;-77
2021/04/12 01:17:59;;;;;;;27.10;21.73;;;11.10;99.90;;;;;;5073229;28;20120;-77
2021/04/12 01:20:30;;;;;;;24.58;19.23;;;11.10;99.90;;;;;;5072625;28;20024;-77
2021/04/12 01:23:45;;;;;;;26.70;21.13;;;11.00;99.90;;;;;;5067127;28;20039;-78
2021/04/12 01:26:41;;;;;;;27.05;21.42;;;11.10;99.90;;;;;;5070879;28;20024;-77
2021/04/12 01:29:44;;;;;;;28.45;21.27;;;11.00;99.90;;;;;;5068793;28;20102;-77
2021/04/12 01:32:28;;;;;;;25.08;20.95;;;11.00;99.90;;;;;;5068009;28;20028;-77
2021/04/12 01:35:36;;;;;;;27.13;22.02;;;10.90;99.90;;;;;;5072720;28;20032;-77
2021/04/12 01:38:02;;;;;;;29.88;23.55;;;10.80;99.90;;;;;;5073523;28;20085;-77
2021/04/12 01:40:55;;;;;;;30.42;23.45;;;10.80;99.90;;;;;;5078655;28;20016;-77
2021/04/12 01:43:47;;;;;;;27.95;23.25;;;10.80;99.90;;;;;;5079552;28;20613;-77
2021/04/12 01:46:36;;;;;;;29.02;23.77;;;10.80;99.90;;;;;;5073548;28;20029;-77
2021/04/12 01:49:34;;;;;;;28.83;23.58;;;10.90;99.90;;;;;;5073746;28;20039;-78
2021/04/12 01:52:31;;;;;;;28.83;22.80;;;10.90;99.90;;;;;;5073958;28;20021;-77
2021/04/12 01:55:31;;;;;;;28.02;23.10;;;10.90;99.90;;;;;;5071731;28;20729;-77
2021/04/12 01:58:18;;;;;;;32.15;23.63;;;10.90;99.90;;;;;;5073907;28;20021;-77
2021/04/12 02:00:47;;;;;;;28.00;22.08;;;11.00;99.90;;;;;;5078252;28;20111;-78
2021/04/12 02:03:19;;;;;;;26.17;22.48;;;11.00;99.90;;;;;;5078255;28;20056;-78
2021/04/12 02:06:12;;;;;;;27.52;22.75;;;11.00;99.90;;;;;;5078717;28;20036;-78
2021/04/12 02:08:50;;;;;;;27.00;22.65;;;11.10;99.90;;;;;;5074229;28;20061;-77
2021/04/12 02:11:35;;;;;;;28.80;23.67;;;11.10;99.90;;;;;;5069886;28;20486;-78
2021/04/12 02:14:09;;;;;;;30.13;24.40;;;11.10;99.90;;;;;;5073617;28;20029;-77
2021/04/12 02:16:57;;;;;;;29.08;23.92;;;11.10;99.90;;;;;;5072638;28;20111;-77
2021/04/12 02:19:34;;;;;;;31.85;24.55;;;11.10;99.90;;;;;;5077215;28;20486;-77
2021/04/12 02:22:33;;;;;;;29.42;23.45;;;11.10;99.90;;;;;;5073489;28;20414;-77
2021/04/12 02:25:08;;;;;;;32.15;24.10;;;11.10;99.90;;;;;;5078154;28;20138;-77
2021/04/12 02:27:34;;;;;;;28.02;23.00;;;11.10;99.90;;;;;;5073433;28;20036;-77
2021/04/12 02:30:14;;;;;;;30.52;23.88;;;11.10;99.90;;;;;;5072236;28;20039;-77
2021/04/12 02:32:54;;;;;;;30.30;23.65;;;11.10;99.90;;;;;;5074587;28;20033;-77
2021/04/12 02:35:26;;;;;;;29.33;24.05;;;11.10;99.90;;;;;;5074991;28;20021;-76
2021/04/12 02:38:10;;;;;;;27.42;23.27;;;11.10;99.90;;;;;;5076403;28;20024;-77
2021/04/12 02:40:51;;;;;;;35.92;24.75;;;11.10;99.90;;;;;;5078710;28;20024;-77
2021/04/12 02:43:56;;;;;;;25.25;21.25;;;11.20;99.90;;;;;;5077176;28;20124;-77
2021/04/12 02:46:38;;;;;;;30.60;24.10;;;11.20;99.90;;;;;;5071288;28;20500;-77
2021/04/12 02:49:15;;;;;;;28.80;23.40;;;11.10;99.90;;;;;;5073961;28;20501;-77
2021/04/12 02:51:59;;;;;;;29.65;23.42;;;11.10;99.90;;;;;;5072312;28;20031;-77
2021/04/12 02:54:36;;;;;;;28.83;23.15;;;11.10;99.90;;;;;;5074721;28;20024;-77
2021/04/12 02:57:23;;;;;;;31.33;23.40;;;11.10;99.90;;;;;;5075948;28;20052;-77
2021/04/12 03:00:07;;;;;;;27.90;23.10;;;11.10;99.90;;;;;;5071430;28;20036;-77
2021/04/12 03:03:14;;;;;;;28.77;23.63;;;11.00;99.90;;;;;;5070315;28;20035;-77
2021/04/12 03:06:11;;;;;;;29.27;23.13;;;11.00;99.90;;;;;;5073315;28;20028;-77
2021/04/12 03:08:52;;;;;;;28.23;22.20;;;11.00;99.90;;;;;;5067535;28;20033;-77
2021/04/12 03:11:46;;;;;;;26.20;21.38;;;11.00;99.90;;;;;;5072621;28;20432;-77
2021/04/12 03:14:49;;;;;;;28.52;22.42;;;11.00;99.90;;;;;;5074553;28;20028;-77
2021/04/12 03:17:48;;;;;;;27.58;22.80;;;11.00;99.90;;;;;;5072428;28;20029;-77
2021/04/12 03:20:45;;;;;;;24.70;20.63;;;11.00;99.90;;;;;;5051256;28;20028;-77
2021/04/12 03:23:41;;;;;;;25.98;20.98;;;11.00;99.90;;;;;;5052397;28;20508;-77
2021/04/12 03:27:03;;;;;;;23.83;20.23;;;11.10;99.90;;;;;;5052451;28;20090;-77
2021/04/12 03:29:50;;;;;;;18.25;16.25;;;11.00;99.90;;;;;;5048010;28;20495;-77
2021/04/12 03:32:36;;;;;;;16.92;14.45;;;11.10;99.90;;;;;;5033470;28;20029;-77
2021/04/12 03:35:13;;;;;;;14.57;13.10;;;11.10;99.90;;;;;;5051900;28;20037;-77
2021/04/12 03:38:18;;;;;;;13.15;11.80;;;11.10;99.90;;;;;;5052247;28;20407;-77
2021/04/12 03:41:11;;;;;;;10.48;9.48;;;11.10;99.90;;;;;;5052209;28;20506;-77
2021/04/12 03:44:14;;;;;;;10.80;9.80;;;11.10;99.90;;;;;;5050904;28;20383;-77
2021/04/12 03:47:27;;;;;;;10.18;9.27;;;11.10;99.90;;;;;;5050865;28;20570;-77
2021/04/12 03:50:19;;;;;;;21.05;16.88;;;11.10;99.90;;;;;;5063654;28;20032;-77
2021/04/12 03:52:57;;;;;;;20.85;17.75;;;11.10;99.90;;;;;;5052073;28;20028;-77
2021/04/12 03:55:47;;;;;;;25.27;20.80;;;11.10;99.90;;;;;;5051991;28;20029;-77
2021/04/12 03:58:15;;;;;;;29.58;21.65;;;11.00;99.90;;;;;;5055216;28;20486;-77
2021/04/12 04:01:16;;;;;;;25.00;20.08;;;11.00;99.90;;;;;;5070638;28;20036;-77
2021/04/12 04:03:48;;;;;;;28.58;21.58;;;11.10;99.90;;;;;;5068275;28;20031;-77
2021/04/12 04:06:20;;;;;;;33.55;23.70;;;11.00;99.90;;;;;;5070395;28;20288;-77
2021/04/12 04:09:05;;;;;;;31.48;23.35;;;11.00;99.90;;;;;;5071824;28;20505;-77
2021/04/12 04:11:44;;;;;;;32.10;23.65;;;11.00;99.90;;;;;;5071711;28;20021;-77
2021/04/12 04:14:15;;;;;;;32.95;25.33;;;11.00;99.90;;;;;;5070419;28;20055;-77
2021/04/12 04:17:19;;;;;;;38.88;27.90;;;11.00;99.90;;;;;;5070455;28;20075;-78
2021/04/12 04:20:04;;;;;;;39.50;27.15;;;10.90;99.90;;;;;;5070259;28;20024;-77
2021/04/12 04:22:54;;;;;;;40.92;28.48;;;10.80;99.90;;;;;;5071580;28;20078;-77
2021/04/12 04:25:50;;;;;;;38.95;29.05;;;10.90;99.90;;;;;;5065279;28;20066;-77
2021/04/12 04:28:43;;;;;;;37.10;26.95;;;10.90;99.90;;;;;;5068672;28;20378;-77
2021/04/12 04:31:38;;;;;;;39.97;27.52;;;11.00;99.90;;;;;;5068732;28;20035;-76
2021/04/12 04:34:19;;;;;;;37.47;27.55;;;11.00;99.90;;;;;;5063809;28;20033;-76
2021/04/12 04:37:06;;;;;;;36.03;26.25;;;11.00;99.90;;;;;;5070612;28;20516;-76
2021/04/12 04:39:48;;;;;;;38.45;25.77;;;11.00;99.90;;;;;;5069873;28;20028;-76
2021/04/12 04:42:30;;;;;;;35.35;25.42;;;11.00;99.90;;;;;;5069859;28;20051;-76
2021/04/12 04:45:31;;;;;;;29.83;22.38;;;11.10;99.90;;;;;;5070479;28;20093;-76
2021/04/12 04:48:24;;;;;;;33.63;25.08;;;11.00;99.90;;;;;;5070571;28;20378;-76
2021/04/12 04:51:08;;;;;;;;;;;11.00;99.90;;;;;;5051149;28;20040;-76
2021/04/12 04:53:54;;;;;;;33.78;23.58;;;10.90;99.90;;;;;;5052058;28;19905;-76
2021/04/12 04:56:50;;;;;;;26.15;21.00;;;11.00;99.90;;;;;;5059394;28;20445;-76
2021/04/12 04:59:19;;;;;;;28.65;21.77;;;11.00;99.90;;;;;;5072320;28;20040;-76
2021/04/12 05:01:47;;;;;;;22.88;19.00;;;11.00;99.90;;;;;;5071228;28;20151;-76
2021/04/12 05:04:29;;;;;;;24.75;19.42;;;11.00;99.90;;;;;;5072458;28;20052;-77
2021/04/12 05:07:15;;;;;;;22.23;17.97;;;11.00;99.90;;;;;;5059068;28;20035;-76
2021/04/12 05:09:53;;;;;;;19.48;16.08;;;11.00;99.90;;;;;;5070456;28;20711;-76
2021/04/12 05:12:53;;;;;;;16.67;14.88;;;11.00;99.90;;;;;;5075163;28;20033;-76
2021/04/12 05:16:15;;;;;;;17.42;14.90;;;11.00;99.90;;;;;;5054127;28;20111;-76
2021/04/12 05:19:17;;;;;;;18.33;14.38;;;11.10;99.90;;;;;;5017065;28;20497;-76
2021/04/12 05:21:58;;;;;;;16.02;13.98;;;11.00;99.90;;;;;;5017601;28;20029;-76
2021/04/12 05:24:43;;;;;;;14.68;13.02;;;11.00;99.90;;;;;;5046975;28;20041;-77
2021/04/12 05:27:46;;;;;;;14.05;11.00;;;11.00;99.90;;;;;;5054670;28;20116;-76
2021/04/12 05:30:51;;;;;;;14.32;10.70;;;11.00;99.90;;;;;;5054100;28;20060;-76
2021/04/12 05:33:41;;;;;;;9.65;8.75;;;11.00;99.90;;;;;;5051674;28;20028;-77
2021/04/12 05:36:15;;;;;;;9.57;8.55;;;11.00;99.90;;;;;;5051448;28;20024;-77
2021/04/12 05:38:49;;;;;;;10.10;9.10;;;11.00;99.90;;;;;;5051557;28;20021;-77
2021/04/12 05:41:47;;;;;;;8.25;7.45;;;11.00;99.90;;;;;;5054118;28;20051;-77
2021/04/12 05:44:28;;;;;;;9.77;6.57;;;11.00;99.90;;;;;;5053420;28;20028;-77
2021/04/12 05:47:05;;;;;;;7.40;6.45;;;11.00;99.90;;;;;;5054441;28;20484;-77
2021/04/12 05:49:48;;;;;;;5.60;5.20;;;10.90;99.90;;;;;;5053381;28;20124;-77
2021/04/12 05:52:28;;;;;;;5.10;4.70;;;11.00;99.90;;;;;;5054546;28;20032;-77
2021/04/12 05:55:24;;;;;;;4.55;4.15;;;11.00;99.90;;;;;;5052808;28;20041;-77
2021/04/12 05:58:24;;;;;;;6.85;4.65;;;11.00;99.90;;;;;;5059914;28;20028;-77
2021/04/12 06:01:19;;;;;;;5.22;4.20;;;11.10;99.90;;;;;;5065092;28;20033;-77
2021/04/12 06:03:58;;;;;;;4.32;3.80;;;11.10;99.90;;;;;;5075582;28;20119;-77
2021/04/12 06:06:26;;;;;;;3.55;3.25;;;11.10;99.90;;;;;;5074111;28;20074;-78
2021/04/12 06:08:55;;;;;;;2.80;2.60;;;11.20;99.90;;;;;;5074012;28;20028;-77
2021/04/12 06:11:35;;;;;;;3.08;2.88;;;11.20;99.90;;;;;;5074154;28;20033;-77
2021/04/12 06:14:29;;;;;;;3.10;2.90;;;11.20;99.90;;;;;;5072787;28;20039;-77
2021/04/12 06:17:31;;;;;;;2.60;2.50;;;11.30;99.90;;;;;;5073012;28;20028;-77
2021/04/12 06:20:15;;;;;;;2.55;2.35;;;11.30;99.90;;;;;;5073907;28;20502;-77
2021/04/12 06:23:10;;;;;;;2.63;2.53;;;11.30;99.90;;;;;;5071921;28;20074;-77
2021/04/12 06:25:47;;;;;;;3.53;2.88;;;11.40;99.90;;;;;;5073923;28;20024;-78
2021/04/12 06:28:38;;;;;;;2.47;2.28;;;11.40;99.90;;;;;;5073750;28;20031;-77
2021/04/12 06:31:33;;;;;;;3.53;3.33;;;11.40;99.90;;;;;;5073782;28;20082;-78
2021/04/12 06:34:17;;;;;;;4.18;3.50;;;11.40;99.90;;;;;;5072431;28;20036;-77
2021/04/12 06:37:05;;;;;;;3.35;2.75;;;11.50;99.90;;;;;;5072436;28;20035;-78
2021/04/12 06:39:52;;;;;;;3.85;2.58;;;11.50;99.90;;;;;;5073568;28;20027;-77
2021/04/12 06:42:56;;;;;;;3.38;3.08;;;11.50;99.90;;;;;;5073689;28;20095;-78
2021/04/12 06:45:27;;;;;;;2.78;2.58;;;11.60;99.90;;;;;;5073621;28;20066;-77
2021/04/12 06:48:08;;;;;;;4.03;3.70;;;11.60;99.90;;;;;;5073344;28;20108;-78
2021/04/12 06:50:55;;;;;;;8.95;8.00;;;11.60;99.90;;;;;;5073412;28;20177;-78
2021/04/12 06:53:45;;;;;;;15.35;10.27;;;11.60;99.90;;;;;;5069328;28;20031;-77
2021/04/12 06:56:16;;;;;;;13.40;11.75;;;11.60;99.90;;;;;;5071191;28;20395;-77
2021/04/12 06:59:26;;;;;;;17.58;14.00;;;11.70;99.90;;;;;;5076825;28;20028;-78
2021/04/12 07:02:51;;;;;;;19.40;12.23;;;11.70;99.90;;;;;;5067336;28;20063;-78
2021/04/12 07:05:22;;;;;;;18.23;12.95;;;11.60;99.90;;;;;;5063615;28;20482;-78
2021/04/12 07:08:25;;;;;;;16.75;13.93;;;11.60;99.90;;;;;;5072463;28;20020;-78
2021/04/12 07:11:35;;;;;;;17.60;14.32;;;11.60;99.90;;;;;;5082783;28;20020;-77
2021/04/12 07:14:28;;;;;;;17.15;13.43;;;11.60;99.90;;;;;;5055019;28;20171;-77
2021/04/12 07:17:25;;;;;;;15.30;12.68;;;11.60;99.90;;;;;;5074004;28;20027;-77
2021/04/12 07:20:28;;;;;;;17.17;13.68;;;11.60;99.90;;;;;;5052407;28;20064;-77
2021/04/12 07:23:03;;;;;;;15.85;12.75;;;11.60;99.90;;;;;;5052283;28;20028;-77
2021/04/12 07:25:29;;;;;;;15.50;12.05;;;11.60;99.90;;;;;;5053882;28;20036;-77
2021/04/12 07:28:20;;;;;;;14.05;11.32;;;11.70;99.90;;;;;;5069212;28;20029;-77
2021/04/12 07:31:16;;;;;;;12.15;10.80;;;11.70;99.90;;;;;;5072174;28;20032;-77
2021/04/12 07:33:57;;;;;;;14.15;11.43;;;11.70;99.90;;;;;;5072424;28;20097;-77
2021/04/12 07:36:35;;;;;;;14.75;12.45;;;11.80;99.90;;;;;;5081357;28;20347;-76
2021/04/12 07:39:22;;;;;;;18.13;14.15;;;11.80;99.90;;;;;;5093329;28;20382;-77
2021/04/12 07:42:20;;;;;;;20.13;14.57;;;11.80;99.90;;;;;;5094065;28;20024;-77
2021/04/12 07:45:26;;;;;;;18.08;13.35;;;11.90;99.90;;;;;;5093714;28;20020;-77
2021/04/12 07:48:07;;;;;;;17.48;13.43;;;11.90;99.90;;;;;;5087494;28;20044;-77
2021/04/12 07:51:05;;;;;;;15.85;12.90;;;11.90;99.90;;;;;;5072072;28;20394;-77
2021/04/12 07:53:51;;;;;;;15.77;12.65;;;11.90;99.90;;;;;;5076312;28;20017;-77
2021/04/12 07:56:35;;;;;;;16.92;12.48;;;12.00;99.90;;;;;;5077084;28;20031;-78
2021/04/12 07:59:12;;;;;;;11.85;10.65;;;12.00;99.90;;;;;;5067185;28;20032;-78
2021/04/12 08:02:04;;;;;;;15.38;11.30;;;12.00;99.90;;;;;;5070860;28;20758;-77
2021/04/12 08:04:51;;;;;;;12.68;10.48;;;12.00;99.90;;;;;;5070951;28;20036;-78
2021/04/12 08:07:41;;;;;;;17.77;12.60;;;12.00;99.90;;;;;;5069609;28;20054;-78
2021/04/12 08:10:37;;;;;;;21.05;16.95;;;12.00;99.90;;;;;;5068642;28;20040;-78
2021/04/12 08:13:22;;;;;;;21.92;16.48;;;12.00;99.90;;;;;;5068933;28;20036;-78
2021/04/12 08:16:30;;;;;;;25.02;17.08;;;11.90;99.90;;;;;;5066424;28;20025;-77
2021/04/12 08:19:15;;;;;;;21.33;17.05;;;12.00;99.90;;;;;;5068538;28;20461;-77
2021/04/12 08:22:13;;;;;;;26.35;17.75;;;12.00;99.90;;;;;;5068977;28;20025;-78
2021/04/12 08:25:12;;;;;;;21.83;17.58;;;12.10;99.90;;;;;;5081707;28;20048;-78
2021/04/12 08:28:03;;;;;;;22.45;16.30;;;12.10;99.90;;;;;;5073554;28;20400;-78
2021/04/12 08:30:34;;;;;;;19.05;16.17;;;12.20;99.90;;;;;;5088427;28;20027;-78
2021/04/12 08:33:37;;;;;;;18.13;13.60;;;12.20;99.90;;;;;;5069095;28;20371;-78
2021/04/12 08:36:42;;;;;;;13.60;12.23;;;12.30;99.90;;;;;;5050037;28;20612;-78
2021/04/12 08:39:20;;;;;;;13.45;11.35;;;12.30;99.90;;;;;;5062564;28;20078;-78
2021/04/12 08:42:12;;;;;;;12.75;11.20;;;12.40;99.90;;;;;;5051614;28;20544;-77
2021/04/12 08:45:03;;;;;;;15.55;11.52;;;12.40;99.90;;;;;;5060351;28;20017;-78
2021/04/12 08:47:35;;;;;;;14.10;12.48;;;12.40;99.90;;;;;;5072497;28;20028;-77
2021/04/12 08:50:30;;;;;;;14.07;11.55;;;12.50;99.90;;;;;;5078246;28;20043;-78
2021/04/12 08:53:34;;;;;;;13.95;12.38;;;12.60;99.90;;;;;;5074638;28;20027;-78
2021/04/12 08:56:35;;;;;;;16.90;12.38;;;12.60;99.90;;;;;;5073262;28;20021;-78
2021/04/12 08:59:40;;;;;;;13.30;11.90;;;12.60;99.90;;;;;;5075511;28;20031;-77
2021/04/12 09:02:48;;;;;;;12.85;10.43;;;12.60;99.90;;;;;;5075568;28;20063;-78
2021/04/12 09:05:35;;;;;;;13.20;10.75;;;12.70;99.90;;;;;;5068353;28;20040;-78
2021/04/12 09:08:32;;;;;;;11.60;10.40;;;12.70;99.90;;;;;;5073892;28;20020;-78
2021/04/12 09:11:27;;;;;;;13.35;9.55;;;12.80;99.90;;;;;;5075353;28;20100;-78
2021/04/12 09:14:20;;;;;;;12.55;10.77;;;12.90;99.90;;;;;;5075115;28;20032;-78
2021/04/12 09:17:13;;;;;;;11.98;10.77;;;13.00;99.90;;;;;;5079481;28;20028;-77
2021/04/12 09:20:15;;;;;;;12.20;10.82;;;13.10;99.90;;;;;;5063253;28;20031;-77
2021/04/12 09:22:48;;;;;;;14.20;11.63;;;13.20;99.90;;;;;;5075728;28;20028;-77
2021/04/12 09:25:51;;;;;;;14.40;12.43;;;13.30;99.90;;;;;;5075013;28;20052;-78
2021/04/12 09:28:44;;;;;;;16.30;11.43;;;13.40;99.90;;;;;;5083073;28;20446;-77
2021/04/12 09:31:14;;;;;;;18.00;13.85;;;13.50;99.90;;;;;;5075355;28;20071;-78
2021/04/12 09:33:48;;;;;;;16.52;14.70;;;13.50;99.90;;;;;;5087248;28;20433;-78
2021/04/12 09:36:50;;;;;;;14.30;12.50;;;13.50;99.90;;;;;;5068825;28;20646;-77
2021/04/12 09:39:40;;;;;;;14.88;10.65;;;13.40;99.90;;;;;;5075956;28;20043;-78
2021/04/12 09:42:43;;;;;;;13.93;10.90;;;13.40;99.90;;;;;;5069529;28;20062;-77
2021/04/12 09:45:41;;;;;;;12.60;10.48;;;13.50;99.90;;;;;;5069412;28;20103;-77
2021/04/12 09:48:32;;;;;;;12.30;10.40;;;13.50;99.90;;;;;;5072191;28;20025;-77
2021/04/12 09:51:16;;;;;;;10.98;9.82;;;13.50;99.90;;;;;;5072811;28;20016;-78
2021/04/12 09:53:48;;;;;;;12.88;11.00;;;13.60;99.90;;;;;;5069640;28;20036;-78
2021/04/12 09:56:19;;;;;;;10.38;9.27;;;13.70;99.90;;;;;;5073233;28;20052;-77
2021/04/12 09:59:03;;;;;;;10.00;9.00;;;13.70;99.90;;;;;;5069673;28;20032;-78
2021/04/12 10:01:29;;;;;;;10.10;9.15;;;13.80;99.90;;;;;;5073569;28;20025;-78
2021/04/12 10:04:31;;;;;;;11.90;8.80;;;13.80;99.90;;;;;;5073953;28;20089;-77
2021/04/12 10:07:15;;;;;;;;;;;13.90;99.90;;;;;;5072928;28;20402;-77
2021/04/12 10:10:10;;;;;;;9.55;6.90;;;13.80;99.90;;;;;;5076542;28;20539;-77
2021/04/12 10:12:41;;;;;;;7.57;6.82;;;13.90;99.90;;;;;;5069709;28;20115;-77
2021/04/12 10:15:25;;;;;;;7.82;7.07;;;14.00;99.90;;;;;;5074507;28;20082;-77
2021/04/12 10:18:27;;;;;;;8.52;6.10;;;14.00;99.90;;;;;;5068842;28;20036;-77
2021/04/12 10:21:22;;;;;;;7.00;6.30;;;14.10;99.90;;;;;;5068059;28;20032;-76
2021/04/12 10:23:59;;;;;;;7.28;6.57;;;14.30;99.90;;;;;;5076917;28;20892;-77
2021/04/12 10:26:48;;;;;;;7.80;5.40;;;14.40;99.90;;;;;;5071586;28;20078;-77
2021/04/12 10:29:33;;;;;;;5.30;4.90;;;14.40;99.90;;;;;;5067883;28;20486;-76
2021/04/12 10:32:16;;;;;;;4.80;4.40;;;14.40;99.90;;;;;;5076620;28;20040;-76
2021/04/12 10:34:48;;;;;;;5.30;4.10;;;14.40;99.90;;;;;;5067631;28;20028;-77
2021/04/12 10:37:26;;;;;;;3.55;3.33;;;14.40;99.90;;;;;;5070973;28;20048;-77
2021/04/12 10:40:17;;;;;;;3.22;3.03;;;14.40;99.90;;;;;;5070990;28;20059;-78
2021/04/12 10:43:11;;;;;;;4.88;3.72;;;14.30;99.90;;;;;;5071823;28;20021;-77
2021/04/12 10:46:16;;;;;;;3.38;2.70;;;14.30;99.90;;;;;;5070907;28;20028;-78
2021/04/12 10:49:10;;;;;;;1.50;1.17;;;14.30;99.90;;;;;;5064312;28;20038;-79
2021/04/12 10:52:23;;;;;;;2.97;1.30;;;14.30;99.90;;;;;;5071172;28;20379;-78
2021/04/12 10:54:57;;;;;;;2.67;1.20;;;14.20;99.90;;;;;;5064487;28;20754;-78
2021/04/12 10:57:51;;;;;;;1.05;0.80;;;14.20;99.90;;;;;;5069350;28;20120;-78
2021/04/12 11:00:38;;;;;;;0.65;0.65;;;14.20;99.90;;;;;;5068809;28;20395;-78
2021/04/12 11:03:34;;;;;;;1.52;0.68;;;14.30;99.90;;;;;;5065506;28;20597;-78
2021/04/12 11:06:42;;;;;;;0.40;0.40;;;14.30;99.90;;;;;;5073951;28;20541;-78
2021/04/12 11:09:42;;;;;;;1.05;0.50;;;14.50;99.90;;;;;;5056769;28;20036;-79
2021/04/12 11:12:21;;;;;;;0.55;0.55;;;14.60;99.90;;;;;;5069383;28;20374;-78
2021/04/12 11:15:13;;;;;;;0.43;0.43;;;14.60;99.90;;;;;;5070997;28;20036;-78
2021/04/12 11:17:45;;;;;;;1.75;0.45;;;14.50;99.90;;;;;;5068075;28;20045;-78
2021/04/12 11:20:17;;;;;;;0.60;0.60;;;14.50;99.90;;;;;;5067917;28;20033;-78
2021/04/12 11:23:08;;;;;;;0.93;0.80;;;14.50;99.90;;;;;;5070335;28;20032;-78
2021/04/12 11:25:52;;;;;;;1.08;0.98;;;14.50;99.90;;;;;;5068924;28;20044;-78
2021/04/12 11:28:58;;;;;;;0.43;0.43;;;14.50;99.90;;;;;;5070363;28;20032;-79
2021/04/12 11:31:40;;;;;;;0.50;0.50;;;14.60;99.90;;;;;;5063399;28;20054;-78
2021/04/12 11:34:10;;;;;;;;;;;14.60;99.90;;;;;;5070802;28;20028;-78
2021/04/12 11:36:47;;;;;;;0.50;0.40;;;14.60;99.90;;;;;;5070191;28;19961;-78
2021/04/12 11:39:17;;;;;;;0.50;0.50;;;14.60;99.90;;;;;;5070893;28;20042;-78
2021/04/12 11:41:58;;;;;;;1.45;0.52;;;14.50;99.90;;;;;;5069457;28;20031;-78
2021/04/12 11:44:36;;;;;;;0.43;0.43;;;14.50;99.90;;;;;;5072767;28;20078;-78
2021/04/12 11:47:23;;;;;;;0.40;0.40;;;14.50;99.90;;;;;;5070118;28;20028;-78
2021/04/12 11:50:20;;;;;;;1.30;0.70;;;14.50;99.90;;;;;;5070843;28;20028;-78
2021/04/12 11:52:55;;;;;;;0.57;0.57;;;14.40;99.90;;;;;;5059283;28;20044;-78
2021/04/12 11:56:11;;;;;;;0.60;0.60;;;14.40;99.90;;;;;;5069585;28;20024;-78
2021/04/12 11:58:58;;;;;;;1.60;0.80;;;14.40;99.90;;;;;;5023145;28;20036;-78
2021/04/12 12:01:52;;;;;;;0.70;0.70;;;14.50;99.90;;;;;;5070208;28;20028;-78
2021/04/12 12:04:51;;;;;;;0.80;0.80;;;14.50;99.90;;;;;;5065912;28;20019;-78
2021/04/12 12:07:34;;;;;;;0.75;0.75;;;14.40;99.90;;;;;;5066966;28;20024;-78
2021/04/12 12:10:31;;;;;;;0.68;0.68;;;14.40;99.90;;;;;;5069121;28;20427;-78
2021/04/12 12:13:03;;;;;;;1.98;0.77;;;14.40;99.90;;;;;;5067066;28;20526;-78
2021/04/12 12:15:43;;;;;;;0.63;0.63;;;14.40;99.90;;;;;;5062895;28;20060;-78
2021/04/12 12:18:23;;;;;;;0.77;0.77;;;14.40;99.90;;;;;;5069354;28;20028;-78
2021/04/12 12:21:14;;;;;;;0.85;0.85;;;14.40;99.90;;;;;;5098675;28;20410;-78
2021/04/12 12:23:52;;;;;;;0.60;0.60;;;14.40;99.90;;;;;;5068042;28;20223;-79
2021/04/12 12:26:28;;;;;;;1.08;0.80;;;14.30;99.90;;;;;;5067222;28;20036;-79
2021/04/12 12:29:16;;;;;;;3.25;0.80;;;14.30;99.90;;;;;;5066401;28;20035;-78
2021/04/12 12:31:56;;;;;;;0.90;0.90;;;14.30;99.90;;;;;;5064082;28;20474;-79
2021/04/12 12:34:25;;;;;;;2.05;0.70;;;14.30;99.90;;;;;;5069102;28;20073;-78
2021/04/12 12:37:01;;;;;;;0.75;0.75;;;14.20;99.90;;;;;;5069748;28;20044;-78
2021/04/12 12:39:57;;;;;;;2.15;0.80;;;14.20;99.90;;;;;;5069314;28;20073;-77
2021/04/12 12:42:35;;;;;;;0.82;0.82;;;14.20;99.90;;;;;;5067238;28;20039;-75
2021/04/12 12:45:18;;;;;;;1.20;1.00;;;14.20;99.90;;;;;;5071045;28;20504;-75
2021/04/12 12:47:47;;;;;;;;;;;14.10;99.90;;;;;;5072331;28;20073;-75
2021/04/12 12:50:27;;;;;;;1.40;1.30;;;14.10;99.90;;;;;;5073073;28;19904;-75
2021/04/12 12:52:58;;;;;;;1.30;1.30;;;14.00;99.90;;;;;;5067498;28;20036;-78
2021/04/12 12:55:32;;;;;;;1.90;1.80;;;14.00;99.90;;;;;;5069704;28;20032;-78
2021/04/12 12:58:08;;;;;;;5.53;1.20;;;14.00;99.90;;;;;;5074256;28;20031;-78
2021/04/12 13:00:41;;;;;;;1.45;1.35;;;13.90;99.90;;;;;;5068269;28;20028;-78
2021/04/12 13:03:28;;;;;;;1.73;1.25;;;13.90;99.90;;;;;;5069822;28;20023;-79
2021/04/12 13:05:57;;;;;;;1.88;1.05;;;13.80;99.90;;;;;;5068401;28;20211;-79
2021/04/12 13:08:34;;;;;;;1.30;1.13;;;13.70;99.90;;;;;;5069553;28;20016;-80
2021/04/12 13:11:00;;;;;;;1.00;1.00;;;13.70;99.90;;;;;;5066855;28;20437;-77
2021/04/12 13:13:35;;;;;;;1.38;1.38;;;13.60;99.90;;;;;;5068372;28;20021;-77
2021/04/12 13:16:13;;;;;;;1.67;1.58;;;13.70;99.90;;;;;;5066390;28;20339;-77
2021/04/12 13:18:41;;;;;;;1.98;1.70;;;13.70;99.90;;;;;;5065718;28;20021;-77
2021/04/12 13:21:15;;;;;;;4.63;1.48;;;13.70;99.90;;;;;;5065888;28;20497;-76
2021/04/12 13:23:43;;;;;;;2.58;1.42;;;13.60;99.90;;;;;;5064691;28;20070;-76
2021/04/12 13:26:21;;;;;;;1.65;1.55;;;13.70;99.90;;;;;;5068681;28;20078;-76
2021/04/12 13:28:47;;;;;;;1.75;1.65;;;13.70;99.90;;;;;;5066512;28;20033;-76
2021/04/12 13:31:21;;;;;;;3.95;1.92;;;13.70;99.90;;;;;;5067426;28;20471;-77
2021/04/12 13:34:00;;;;;;;4.97;1.92;;;13.70;99.90;;;;;;5077246;28;20102;-77
2021/04/12 13:36:39;;;;;;;2.80;1.58;;;13.60;99.90;;;;;;5062597;28;20029;-76
2021/04/12 13:39:14;;;;;;;7.15;2.08;;;13.60;99.90;;;;;;5069945;28;20055;-78
2021/04/12 13:41:47;;;;;;;2.00;1.65;;;13.60;99.90;;;;;;5068431;28;20036;-76
2021/04/12 13:44:19;;;;;;;2.00;1.85;;;13.60;99.90;;;;;;5071843;28;20535;-77
2021/04/12 13:46:54;;;;;;;4.38;1.98;;;13.60;99.90;;;;;;5072821;28;20029;-77
2021/04/12 13:49:26;;;;;;;3.72;1.90;;;13.60;99.90;;;;;;5076268;28;20012;-77
2021/04/12 13:52:32;;;;;;;1.98;1.88;;;13.60;99.90;;;;;;5076734;28;20020;-75
2021/04/12 13:55:07;;;;;;;3.67;1.90;;;13.70;99.90;;;;;;5074935;28;20077;-75
2021/04/12 13:57:41;;;;;;;3.63;2.60;;;13.80;99.90;;;;;;5062480;28;20028;-74
2021/04/12 14:00:21;;;;;;;52.65;18.92;;;13.80;99.90;;;;;;5069752;28;20035;-74
2021/04/12 14:02:58;;;;;;;58.47;20.08;;;13.80;99.90;;;;;;5071740;28;20020;-74
2021/04/12 14:05:36;;;;;;;79.43;23.58;;;13.90;99.90;;;;;;5073438;28;20095;-75
2021/04/12 14:08:21;;;;;;;228.18;77.60;;;13.90;99.90;;;;;;5073908;28;20029;-76
2021/04/12 14:11:18;;;;;;;98.75;37.63;;;13.90;99.90;;;;;;5073004;28;20478;-76
2021/04/12 14:13:49;;;;;;;20.23;11.65;;;13.90;99.90;;;;;;5067110;28;20024;-74
2021/04/12 14:16:23;;;;;;;7.53;5.43;;;13.90;99.90;;;;;;5067875;28;20131;-75